Time;durP1;ratioP1;P1;durP2;ratioP2;P2;SDS_P1;SDS_P2;PMS_P1;PMS_P2;Temp;Humidity;BMP_temperature;BMP_pressure;BME280_temperature;BME280_humidity;BME280_pressure;Samples;Min_cycle;Max_cycle;Signal;HPM_P1;HPM_P2
2023/10/26 00:01:41;;;;;;;76.45;64.28;;;;;;;;;;5043705;28;25100;-61
2023/10/26 00:04:07;;;;;;;68.68;59.35;;;;;;;;;;5043767;28;25052;-61
2023/10/26 00:06:33;;;;;;;70.07;60.22;;;;;;;;;;5041420;28;25043;-61
2023/10/26 00:08:59;;;;;;;67.60;55.70;;;;;;;;;;5043413;28;25169;-60
2023/10/26 00:11:25;;;;;;;74.25;57.33;;;;;;;;;;5038071;28;25070;-61
2023/10/26 00:13:51;;;;;;;86.88;64.00;;;;;;;;;;5044279;28;25090;-60
2023/10/26 00:16:17;;;;;;;81.30;60.75;;;;;;;;;;5039643;28;25069;-60
2023/10/26 00:18:43;;;;;;;83.45;62.30;;;;;;;;;;5037715;28;25057;-61
2023/10/26 00:21:09;;;;;;;66.05;59.05;;;;;;;;;;5043545;28;25077;-60
2023/10/26 00:23:35;;;;;;;75.43;60.50;;;;;;;;;;5039086;28;25171;-60
2023/10/26 00:26:01;;;;;;;85.00;62.47;;;;;;;;;;5039731;28;25160;-60
2023/10/26 00:28:27;;;;;;;68.30;58.10;;;;;;;;;;5043717;28;25074;-61
2023/10/26 00:30:53;;;;;;;75.35;60.55;;;;;;;;;;5045496;28;25093;-60
2023/10/26 00:33:18;;;;;;;72.78;58.03;;;;;;;;;;5041524;28;25082;-61
2023/10/26 00:35:45;;;;;;;91.03;63.83;;;;;;;;;;5039692;28;25110;-60
2023/10/26 00:38:11;;;;;;;86.68;63.45;;;;;;;;;;5039793;28;25148;-60
2023/10/26 00:40:37;;;;;;;84.35;64.68;;;;;;;;;;5041277;28;25076;-61
2023/10/26 00:43:06;;;;;;;106.75;70.30;;;;;;;;;;5045163;28;25081;-61
2023/10/26 00:45:34;;;;;;;90.60;65.82;;;;;;;;;;5042878;28;25147;-61
2023/10/26 00:48:00;;;;;;;80.75;64.82;;;;;;;;;;5041467;28;25120;-60
2023/10/26 00:50:27;;;;;;;88.68;67.15;;;;;;;;;;5042735;28;25073;-61
2023/10/26 00:52:53;;;;;;;109.53;70.55;;;;;;;;;;5041307;28;25061;-62
2023/10/26 00:55:19;;;;;;;89.90;68.68;;;;;;;;;;5044452;28;25113;-61
2023/10/26 00:57:45;;;;;;;97.00;70.35;;;;;;;;;;5044041;28;25069;-60
2023/10/26 01:00:12;;;;;;;86.43;66.30;;;;;;;;;;5037541;28;25180;-61
2023/10/26 01:02:38;;;;;;;83.90;63.40;;;;;;;;;;5037383;28;25055;-60
2023/10/26 01:05:04;;;;;;;69.57;61.92;;;;;;;;;;5040672;28;25061;-61
2023/10/26 01:07:30;;;;;;;78.60;63.65;;;;;;;;;;5041161;28;25068;-60
2023/10/26 01:09:57;;;;;;;89.85;65.35;;;;;;;;;;5043665;28;25050;-60
2023/10/26 01:12:23;;;;;;;74.13;61.22;;;;;;;;;;5042183;28;25074;-61
2023/10/26 01:14:49;;;;;;;85.03;62.25;;;;;;;;;;5036053;28;25061;-60
2023/10/26 01:17:15;;;;;;;83.13;62.60;;;;;;;;;;5040372;28;25097;-61
2023/10/26 01:19:43;;;;;;;87.00;64.50;;;;;;;;;;5040772;28;25069;-60
2023/10/26 01:22:09;;;;;;;60.55;54.55;;;;;;;;;;5044028;28;25059;-61
2023/10/26 01:24:35;;;;;;;89.88;64.13;;;;;;;;;;5044967;28;25075;-60
2023/10/26 01:27:01;;;;;;;77.88;60.50;;;;;;;;;;5042509;28;25100;-61
2023/10/26 01:29:27;;;;;;;101.03;66.22;;;;;;;;;;5040204;28;25162;-60
2023/10/26 01:31:53;;;;;;;56.28;51.10;;;;;;;;;;5044541;28;25170;-61
2023/10/26 01:34:19;;;;;;;76.03;56.83;;;;;;;;;;5038266;28;25165;-60
2023/10/26 01:36:45;;;;;;;76.80;60.05;;;;;;;;;;5034429;28;25168;-61
2023/10/26 01:39:11;;;;;;;77.20;59.47;;;;;;;;;;5042095;28;25084;-61
2023/10/26 01:41:37;;;;;;;59.92;53.67;;;;;;;;;;5039465;28;25130;-59
2023/10/26 01:44:03;;;;;;;85.43;62.30;;;;;;;;;;5034496;28;25176;-61
2023/10/26 01:46:29;;;;;;;90.80;64.45;;;;;;;;;;5041313;28;25094;-60
2023/10/26 01:48:55;;;;;;;88.50;63.15;;;;;;;;;;5044111;28;25103;-60
2023/10/26 01:51:21;;;;;;;76.05;60.95;;;;;;;;;;5038815;28;25061;-60
2023/10/26 01:53:47;;;;;;;90.15;63.95;;;;;;;;;;5044673;28;25091;-59
2023/10/26 01:56:13;;;;;;;102.82;68.65;;;;;;;;;;5043707;28;25062;-59
2023/10/26 01:58:39;;;;;;;75.88;63.50;;;;;;;;;;5041333;28;25078;-60
2023/10/26 02:01:05;;;;;;;64.03;57.20;;;;;;;;;;5040248;28;25071;-60
2023/10/26 02:03:31;;;;;;;87.38;65.75;;;;;;;;;;5037634;28;25069;-60
2023/10/26 02:05:57;;;;;;;68.55;61.22;;;;;;;;;;5039882;28;25170;-60
2023/10/26 02:08:23;;;;;;;78.60;66.15;;;;;;;;;;5039587;28;25170;-61
2023/10/26 02:10:49;;;;;;;95.68;65.22;;;;;;;;;;5045440;28;25130;-59
2023/10/26 02:13:15;;;;;;;156.82;64.80;;;;;;;;;;5040621;28;25097;-59
2023/10/26 02:15:41;;;;;;;279.65;74.35;;;;;;;;;;5040838;28;25052;-60
2023/10/26 02:18:07;;;;;;;91.82;56.45;;;;;;;;;;5042941;28;25055;-60
2023/10/26 02:20:33;;;;;;;241.43;63.70;;;;;;;;;;5042163;28;25077;-60
2023/10/26 02:22:59;;;;;;;273.50;77.95;;;;;;;;;;5037905;28;25112;-59
2023/10/26 02:25:25;;;;;;;239.00;72.00;;;;;;;;;;5042362;28;25063;-61
2023/10/26 02:27:51;;;;;;;253.95;71.40;;;;;;;;;;5042837;28;25070;-61
2023/10/26 02:30:17;;;;;;;193.35;65.05;;;;;;;;;;5040311;28;25131;-61
2023/10/26 02:32:43;;;;;;;129.00;61.50;;;;;;;;;;5033636;28;25053;-61
2023/10/26 02:35:09;;;;;;;111.75;61.22;;;;;;;;;;5040830;28;25076;-60
2023/10/26 02:37:38;;;;;;;149.82;60.60;;;;;;;;;;5043514;28;25071;-59
2023/10/26 02:40:05;;;;;;;343.13;69.80;;;;;;;;;;5038139;28;25157;-59
2023/10/26 02:42:31;;;;;;;227.55;64.43;;;;;;;;;;5044722;28;25050;-60
2023/10/26 02:44:57;;;;;;;291.15;60.78;;;;;;;;;;5036850;28;25075;-60
2023/10/26 02:47:23;;;;;;;192.80;50.17;;;;;;;;;;5037018;28;25082;-60
2023/10/26 02:49:50;;;;;;;157.10;54.03;;;;;;;;;;5046293;28;25063;-60
2023/10/26 02:52:16;;;;;;;201.98;51.47;;;;;;;;;;5033026;28;25127;-60
2023/10/26 02:54:42;;;;;;;111.30;49.25;;;;;;;;;;5035008;28;25055;-60
2023/10/26 02:57:08;;;;;;;211.15;49.22;;;;;;;;;;5027794;28;25059;-60
2023/10/26 02:59:34;;;;;;;187.98;55.13;;;;;;;;;;5019172;28;25056;-61
2023/10/26 03:02:00;;;;;;;217.48;56.83;;;;;;;;;;5038682;28;25146;-61
2023/10/26 03:04:26;;;;;;;170.43;57.85;;;;;;;;;;5042640;28;25091;-60
2023/10/26 03:06:52;;;;;;;107.03;54.67;;;;;;;;;;5044408;28;25067;-60
2023/10/26 03:09:19;;;;;;;104.03;55.47;;;;;;;;;;5042466;28;25104;-60
2023/10/26 03:11:47;;;;;;;78.03;56.22;;;;;;;;;;5042201;28;25078;-62
2023/10/26 03:14:12;;;;;;;95.30;57.88;;;;;;;;;;5041846;28;25090;-61
2023/10/26 03:16:38;;;;;;;142.57;58.88;;;;;;;;;;5041076;28;25095;-61
2023/10/26 03:19:04;;;;;;;86.65;61.00;;;;;;;;;;5041277;28;25121;-61
2023/10/26 03:21:31;;;;;;;152.63;60.30;;;;;;;;;;5041143;28;25065;-60
2023/10/26 03:23:57;;;;;;;252.32;74.22;;;;;;;;;;5042379;28;25058;-60
2023/10/26 03:26:23;;;;;;;164.63;59.72;;;;;;;;;;5039576;28;25105;-60
2023/10/26 03:28:49;;;;;;;336.15;69.38;;;;;;;;;;5041065;28;25116;-61
2023/10/26 03:31:15;;;;;;;159.15;64.45;;;;;;;;;;5039522;28;25059;-60
2023/10/26 03:33:41;;;;;;;225.77;64.72;;;;;;;;;;5038844;28;25060;-60
2023/10/26 03:36:14;;;;;;;118.15;61.17;;;;;;;;;;5039780;28;25135;-60
2023/10/26 03:38:40;;;;;;;102.15;55.03;;;;;;;;;;5028532;28;25063;-60
2023/10/26 03:41:06;;;;;;;282.15;64.35;;;;;;;;;;5014305;28;25128;-60
2023/10/26 03:43:32;;;;;;;454.25;78.35;;;;;;;;;;5020710;28;25074;-60
2023/10/26 03:45:58;;;;;;;236.73;63.20;;;;;;;;;;5012839;28;25047;-61
2023/10/26 03:48:24;;;;;;;142.88;57.30;;;;;;;;;;5018558;28;25074;-60
2023/10/26 03:50:50;;;;;;;737.50;101.68;;;;;;;;;;5029777;28;25073;-61
2023/10/26 03:53:16;;;;;;;176.95;55.90;;;;;;;;;;5040736;28;25061;-60
2023/10/26 03:55:42;;;;;;;340.77;67.25;;;;;;;;;;5040841;28;25084;-60
2023/10/26 03:58:08;;;;;;;247.52;63.60;;;;;;;;;;5036669;28;25066;-61
2023/10/26 04:00:33;;;;;;;234.55;63.10;;;;;;;;;;5022701;28;25148;-61
2023/10/26 04:02:59;;;;;;;206.60;59.42;;;;;;;;;;5024813;28;25060;-61
2023/10/26 04:05:25;;;;;;;272.52;61.00;;;;;;;;;;5043363;28;25081;-61
2023/10/26 04:07:52;;;;;;;148.02;51.03;;;;;;;;;;5034149;28;25081;-61
2023/10/26 04:10:18;;;;;;;209.13;60.97;;;;;;;;;;5042070;28;25135;-61
2023/10/26 04:12:44;;;;;;;253.13;64.03;;;;;;;;;;5043965;28;25147;-62
2023/10/26 04:15:10;;;;;;;161.50;58.58;;;;;;;;;;5044435;28;25072;-61
2023/10/26 04:17:36;;;;;;;121.13;58.20;;;;;;;;;;5044253;28;25069;-61
2023/10/26 04:20:02;;;;;;;121.28;58.17;;;;;;;;;;5044535;28;25058;-61
2023/10/26 04:22:28;;;;;;;121.68;58.20;;;;;;;;;;5042874;28;25120;-61
2023/10/26 04:24:54;;;;;;;86.22;55.22;;;;;;;;;;5046555;28;25062;-61
2023/10/26 04:27:20;;;;;;;68.53;52.65;;;;;;;;;;5044855;28;25076;-61
2023/10/26 04:29:46;;;;;;;92.45;58.25;;;;;;;;;;5041839;28;25047;-61
2023/10/26 04:32:12;;;;;;;94.50;58.00;;;;;;;;;;5045381;28;25109;-61
2023/10/26 04:34:43;;;;;;;75.35;57.05;;;;;;;;;;5038338;28;25147;-62
2023/10/26 04:37:09;;;;;;;137.65;66.40;;;;;;;;;;5044018;28;25086;-61
2023/10/26 04:39:35;;;;;;;98.13;56.63;;;;;;;;;;5046211;28;25055;-61
2023/10/26 04:42:03;;;;;;;91.05;56.50;;;;;;;;;;5045664;28;25055;-61
2023/10/26 04:44:29;;;;;;;103.53;57.85;;;;;;;;;;5045210;28;25080;-61
2023/10/26 04:46:55;;;;;;;85.60;56.72;;;;;;;;;;5041861;28;25131;-60
2023/10/26 04:49:21;;;;;;;87.60;56.30;;;;;;;;;;5024994;28;25147;-62
2023/10/26 04:51:47;;;;;;;100.68;57.53;;;;;;;;;;5039300;28;25099;-61
2023/10/26 04:54:12;;;;;;;115.05;62.97;;;;;;;;;;5047331;28;25080;-61
2023/10/26 04:56:38;;;;;;;172.70;68.90;;;;;;;;;;5044278;28;25055;-62
2023/10/26 04:59:05;;;;;;;293.85;72.20;;;;;;;;;;5045170;28;25017;-61
2023/10/26 05:01:30;;;;;;;434.02;93.25;;;;;;;;;;5038784;28;25067;-61
2023/10/26 05:03:56;;;;;;;301.20;73.95;;;;;;;;;;5045584;28;25141;-61
2023/10/26 05:06:22;;;;;;;324.70;74.93;;;;;;;;;;5041204;28;25102;-61
2023/10/26 05:08:48;;;;;;;532.35;95.22;;;;;;;;;;5044594;28;25071;-60
2023/10/26 05:11:16;;;;;;;361.45;68.32;;;;;;;;;;5040702;28;25065;-60
2023/10/26 05:13:41;;;;;;;384.05;75.18;;;;;;;;;;5039842;28;25074;-60
2023/10/26 05:16:07;;;;;;;409.05;81.95;;;;;;;;;;5038870;28;25054;-60
2023/10/26 05:18:33;;;;;;;349.30;76.50;;;;;;;;;;5035309;28;25093;-61
2023/10/26 05:20:59;;;;;;;355.67;74.28;;;;;;;;;;5043561;28;25073;-61
2023/10/26 05:23:26;;;;;;;514.58;79.25;;;;;;;;;;5042169;28;25087;-61
2023/10/26 05:25:52;;;;;;;476.60;81.25;;;;;;;;;;5045138;28;25076;-61
2023/10/26 05:28:18;;;;;;;399.95;66.15;;;;;;;;;;5041989;28;25096;-60
2023/10/26 05:30:44;;;;;;;352.10;66.78;;;;;;;;;;5050728;28;25075;-62
2023/10/26 05:33:10;;;;;;;596.20;89.38;;;;;;;;;;5043232;28;25068;-61
2023/10/26 05:35:36;;;;;;;453.63;62.20;;;;;;;;;;5037073;28;25089;-59
2023/10/26 05:38:03;;;;;;;532.45;69.82;;;;;;;;;;5044601;28;25105;-62
2023/10/26 05:40:30;;;;;;;842.97;109.85;;;;;;;;;;5033718;28;25077;-60
2023/10/26 05:42:56;;;;;;;694.47;82.07;;;;;;;;;;5042914;28;25070;-60
2023/10/26 05:45:22;;;;;;;625.38;85.20;;;;;;;;;;5044399;28;25066;-61
2023/10/26 05:47:52;;;;;;;622.58;93.30;;;;;;;;;;5041894;28;25064;-60
2023/10/26 05:50:18;;;;;;;664.03;100.57;;;;;;;;;;5046375;28;25066;-61
2023/10/26 05:52:45;;;;;;;517.63;89.82;;;;;;;;;;5042337;28;25057;-61
2023/10/26 05:55:11;;;;;;;699.85;100.22;;;;;;;;;;5049531;28;25089;-60
2023/10/26 05:57:37;;;;;;;394.48;77.05;;;;;;;;;;5040474;28;25067;-61
2023/10/26 06:00:06;;;;;;;414.58;81.85;;;;;;;;;;5045481;28;25082;-60
2023/10/26 06:02:32;;;;;;;307.98;75.80;;;;;;;;;;5028592;28;25125;-60
2023/10/26 06:04:58;;;;;;;479.40;93.00;;;;;;;;;;5039497;28;25051;-60
2023/10/26 06:07:24;;;;;;;347.63;81.38;;;;;;;;;;5031404;28;25096;-60
2023/10/26 06:09:50;;;;;;;318.38;77.85;;;;;;;;;;5036871;28;25138;-60
2023/10/26 06:12:17;;;;;;;146.75;65.63;;;;;;;;;;5034318;28;25060;-61
2023/10/26 06:14:43;;;;;;;260.52;76.45;;;;;;;;;;5034344;28;25103;-61
2023/10/26 06:17:10;;;;;;;271.13;80.85;;;;;;;;;;5031009;28;25066;-61
2023/10/26 06:19:36;;;;;;;406.88;90.13;;;;;;;;;;5036999;28;25099;-61
2023/10/26 06:22:02;;;;;;;283.42;77.90;;;;;;;;;;5040337;28;25153;-61
2023/10/26 06:24:28;;;;;;;231.57;72.13;;;;;;;;;;5044213;28;25062;-61
2023/10/26 06:26:54;;;;;;;304.65;74.40;;;;;;;;;;5044898;28;25073;-61
2023/10/26 06:29:20;;;;;;;399.08;84.43;;;;;;;;;;5042567;28;25103;-60
2023/10/26 06:31:46;;;;;;;549.58;99.82;;;;;;;;;;5043875;28;25070;-60
2023/10/26 06:34:12;;;;;;;217.85;65.03;;;;;;;;;;5043839;28;25055;-61
2023/10/26 06:36:38;;;;;;;598.70;94.43;;;;;;;;;;5043134;28;25055;-60
2023/10/26 06:39:04;;;;;;;482.45;96.78;;;;;;;;;;5041967;28;25068;-60
2023/10/26 06:41:30;;;;;;;430.42;92.32;;;;;;;;;;5043899;28;25088;-60
2023/10/26 06:43:56;;;;;;;675.67;111.53;;;;;;;;;;5042504;28;25083;-60
2023/10/26 06:46:22;;;;;;;655.08;102.47;;;;;;;;;;5043439;28;25086;-61
2023/10/26 06:48:48;;;;;;;550.67;95.05;;;;;;;;;;5034523;28;25083;-61
2023/10/26 06:51:14;;;;;;;482.05;90.82;;;;;;;;;;5043199;28;25121;-60
2023/10/26 06:53:40;;;;;;;480.08;93.05;;;;;;;;;;5046000;28;25075;-61
2023/10/26 06:56:12;;;;;;;566.90;99.68;;;;;;;;;;5044317;28;25077;-61
2023/10/26 06:58:39;;;;;;;556.17;101.50;;;;;;;;;;5042145;28;25106;-61
2023/10/26 07:01:09;;;;;;;427.95;87.82;;;;;;;;;;5044075;28;25139;-60
2023/10/26 07:03:35;;;;;;;634.90;104.50;;;;;;;;;;5036573;28;25183;-61
2023/10/26 07:06:04;;;;;;;608.60;109.63;;;;;;;;;;5043854;28;25093;-61
2023/10/26 07:08:31;;;;;;;351.00;79.85;;;;;;;;;;5042247;28;25053;-61
2023/10/26 07:10:59;;;;;;;505.73;99.28;;;;;;;;;;5043769;28;25142;-60
2023/10/26 07:13:25;;;;;;;565.20;93.57;;;;;;;;;;5041143;28;25124;-61
2023/10/26 07:15:51;;;;;;;556.03;93.25;;;;;;;;;;5044023;28;25120;-60
2023/10/26 07:18:18;;;;;;;485.45;87.78;;;;;;;;;;5044645;28;25058;-60
2023/10/26 07:20:44;;;;;;;334.90;72.43;;;;;;;;;;5043742;28;25081;-60
2023/10/26 07:23:10;;;;;;;555.85;96.28;;;;;;;;;;5047159;28;25145;-60
2023/10/26 07:25:36;;;;;;;408.50;79.00;;;;;;;;;;5047965;28;25152;-61
2023/10/26 07:28:03;;;;;;;476.30;85.55;;;;;;;;;;5042490;28;25058;-62
2023/10/26 07:30:29;;;;;;;462.35;90.85;;;;;;;;;;5044542;28;25074;-61
2023/10/26 07:32:55;;;;;;;314.83;69.45;;;;;;;;;;5046146;28;25061;-59
2023/10/26 07:35:21;;;;;;;432.35;86.20;;;;;;;;;;5047390;28;25098;-60
2023/10/26 07:37:47;;;;;;;641.72;95.72;;;;;;;;;;5046665;28;25097;-60
2023/10/26 07:40:13;;;;;;;598.30;97.88;;;;;;;;;;5044666;28;25082;-61
2023/10/26 07:42:39;;;;;;;528.13;96.57;;;;;;;;;;5045658;28;25099;-61
2023/10/26 07:45:06;;;;;;;458.65;86.32;;;;;;;;;;5033785;28;25114;-60
2023/10/26 07:47:33;;;;;;;418.45;80.05;;;;;;;;;;5025939;28;25059;-61
2023/10/26 07:49:59;;;;;;;399.42;77.70;;;;;;;;;;5027913;28;25141;-61
2023/10/26 07:52:25;;;;;;;443.10;85.78;;;;;;;;;;5024682;28;25068;-60
2023/10/26 07:54:51;;;;;;;185.63;59.13;;;;;;;;;;5042503;28;25065;-61
2023/10/26 07:57:19;;;;;;;466.55;90.68;;;;;;;;;;5037305;28;25057;-60
2023/10/26 07:59:45;;;;;;;397.75;80.50;;;;;;;;;;5047316;28;25117;-61
2023/10/26 08:02:11;;;;;;;309.90;69.00;;;;;;;;;;5042833;28;25084;-60
2023/10/26 08:04:37;;;;;;;280.77;66.70;;;;;;;;;;5045772;28;25106;-61
2023/10/26 08:07:03;;;;;;;433.92;81.82;;;;;;;;;;5043699;28;25087;-60
2023/10/26 08:09:30;;;;;;;282.08;66.75;;;;;;;;;;5045379;28;25067;-60
2023/10/26 08:11:56;;;;;;;290.25;63.22;;;;;;;;;;5046867;28;25052;-61
2023/10/26 08:14:22;;;;;;;269.40;69.20;;;;;;;;;;5042886;28;25158;-60
2023/10/26 08:16:48;;;;;;;303.23;72.03;;;;;;;;;;5043724;28;25082;-61
2023/10/26 08:19:14;;;;;;;253.25;67.35;;;;;;;;;;5041389;28;25079;-61
2023/10/26 08:21:40;;;;;;;417.58;79.45;;;;;;;;;;5039913;28;25086;-60
2023/10/26 08:24:06;;;;;;;295.52;66.47;;;;;;;;;;5041585;28;25097;-60
2023/10/26 08:26:32;;;;;;;398.15;71.68;;;;;;;;;;5035064;28;25136;-59
2023/10/26 08:28:58;;;;;;;401.40;74.40;;;;;;;;;;5043010;28;25076;-59
2023/10/26 08:31:24;;;;;;;340.85;69.00;;;;;;;;;;5046226;28;25144;-60
2023/10/26 08:33:50;;;;;;;278.48;60.67;;;;;;;;;;5044004;28;25064;-60
2023/10/26 08:36:16;;;;;;;151.50;45.05;;;;;;;;;;5042603;28;25078;-60
2023/10/26 08:38:42;;;;;;;218.25;56.45;;;;;;;;;;5041023;28;25179;-61
2023/10/26 08:41:13;;;;;;;397.05;72.07;;;;;;;;;;5031907;28;25074;-61
2023/10/26 08:43:40;;;;;;;144.07;53.92;;;;;;;;;;5051672;28;25082;-60
2023/10/26 08:46:08;;;;;;;178.45;56.53;;;;;;;;;;5039699;28;25072;-60
2023/10/26 08:48:34;;;;;;;212.65;59.97;;;;;;;;;;5038915;28;25080;-60
2023/10/26 08:51:00;;;;;;;126.72;54.03;;;;;;;;;;5041531;28;25051;-60
2023/10/26 08:53:26;;;;;;;97.25;48.72;;;;;;;;;;5036061;28;25055;-60
2023/10/26 08:55:56;;;;;;;76.30;43.63;;;;;;;;;;5045459;28;25077;-60
2023/10/26 08:58:22;;;;;;;132.07;56.05;;;;;;;;;;5045307;28;25021;-60
2023/10/26 09:00:51;;;;;;;106.28;57.08;;;;;;;;;;5044992;28;25143;-60
2023/10/26 09:03:18;;;;;;;137.13;59.55;;;;;;;;;;5044682;28;25130;-61
2023/10/26 09:05:54;;;;;;;120.60;60.47;;;;;;;;;;5049290;28;25131;-60
2023/10/26 09:08:22;;;;;;;130.95;59.00;;;;;;;;;;5048894;28;25063;-60
2023/10/26 09:10:48;;;;;;;102.65;59.00;;;;;;;;;;5050505;28;25059;-60
2023/10/26 09:13:22;;;;;;;94.70;59.28;;;;;;;;;;5045399;28;25123;-60
2023/10/26 09:15:49;;;;;;;97.18;58.25;;;;;;;;;;5041188;28;25139;-61
2023/10/26 09:18:15;;;;;;;113.75;62.42;;;;;;;;;;5045098;28;25072;-60
2023/10/26 09:20:43;;;;;;;102.85;58.97;;;;;;;;;;5045895;28;25074;-60
2023/10/26 09:23:26;;;;;;;132.85;61.78;;;;;;;;;;5045344;28;25067;-60
2023/10/26 09:25:59;;;;;;;116.65;64.10;;;;;;;;;;5043680;28;25126;-60
2023/10/26 09:28:25;;;;;;;95.38;61.50;;;;;;;;;;5019890;28;25151;-60
2023/10/26 09:30:56;;;;;;;121.85;67.70;;;;;;;;;;5021727;28;25059;-60
2023/10/26 09:33:23;;;;;;;100.63;60.90;;;;;;;;;;5036869;28;25073;-60
2023/10/26 09:35:49;;;;;;;113.78;61.90;;;;;;;;;;5044467;28;25075;-60
2023/10/26 09:38:17;;;;;;;72.68;52.67;;;;;;;;;;5044730;28;25049;-60
2023/10/26 09:40:43;;;;;;;73.50;55.58;;;;;;;;;;5047244;28;25067;-61
2023/10/26 09:43:09;;;;;;;79.43;53.95;;;;;;;;;;5040431;28;25053;-61
2023/10/26 09:45:35;;;;;;;76.10;52.45;;;;;;;;;;5043123;28;25055;-61
2023/10/26 09:48:04;;;;;;;95.07;55.95;;;;;;;;;;5039155;28;25044;-60
2023/10/26 09:50:38;;;;;;;74.78;49.00;;;;;;;;;;5043458;28;25069;-61
2023/10/26 09:53:04;;;;;;;77.35;51.58;;;;;;;;;;5043969;28;25067;-63
2023/10/26 09:55:30;;;;;;;85.45;51.60;;;;;;;;;;5038244;28;25056;-61
2023/10/26 09:58:02;;;;;;;72.07;51.15;;;;;;;;;;5042634;28;25055;-61
2023/10/26 10:00:30;;;;;;;64.72;47.28;;;;;;;;;;5039119;28;25056;-61
2023/10/26 10:03:09;;;;;;;58.00;45.22;;;;;;;;;;5038932;28;25157;-60
2023/10/26 10:05:37;;;;;;;76.07;44.47;;;;;;;;;;5040977;28;25067;-60
2023/10/26 10:08:03;;;;;;;58.95;42.83;;;;;;;;;;5043347;28;25075;-61
2023/10/26 10:10:29;;;;;;;57.58;40.05;;;;;;;;;;5042921;28;25174;-62
2023/10/26 10:12:55;;;;;;;50.13;39.15;;;;;;;;;;5038934;28;25076;-61
2023/10/26 10:15:53;;;;;;;61.67;43.40;;;;;;;;;;5037257;28;25046;-61
2023/10/26 10:18:20;;;;;;;81.88;46.33;;;;;;;;;;5039694;28;25053;-60
2023/10/26 10:20:46;;;;;;;69.18;44.15;;;;;;;;;;5038733;28;25056;-62
2023/10/26 10:23:28;;;;;;;69.53;48.67;;;;;;;;;;5035494;28;25124;-61
2023/10/26 10:25:56;;;;;;;82.45;55.10;;;;;;;;;;5043309;28;25061;-59
2023/10/26 10:28:22;;;;;;;58.55;52.13;;;;;;;;;;5035486;28;25085;-60
2023/10/26 10:30:50;;;;;;;71.47;53.63;;;;;;;;;;5034153;28;25071;-60
2023/10/26 10:33:23;;;;;;;74.50;56.75;;;;;;;;;;5039314;28;25145;-61
2023/10/26 10:35:59;;;;;;;63.05;54.85;;;;;;;;;;5045652;28;25068;-59
2023/10/26 10:38:25;;;;;;;59.03;52.58;;;;;;;;;;5042188;28;25076;-60
2023/10/26 10:40:54;;;;;;;61.75;54.72;;;;;;;;;;5042549;28;25138;-61
2023/10/26 10:43:29;;;;;;;59.65;53.25;;;;;;;;;;5049848;28;25147;-61
2023/10/26 10:45:55;;;;;;;57.38;51.42;;;;;;;;;;5042083;28;25128;-61
2023/10/26 10:48:21;;;;;;;61.22;54.55;;;;;;;;;;5041996;28;25055;-60
2023/10/26 10:50:51;;;;;;;64.20;55.13;;;;;;;;;;5039775;28;25066;-60
2023/10/26 10:53:17;;;;;;;62.75;54.30;;;;;;;;;;5044932;28;25108;-60
2023/10/26 10:55:43;;;;;;;60.00;53.47;;;;;;;;;;5046876;28;25130;-60
2023/10/26 10:58:09;;;;;;;59.92;53.40;;;;;;;;;;5040551;28;25044;-62
2023/10/26 11:00:45;;;;;;;59.90;53.42;;;;;;;;;;5048341;28;25078;-61
2023/10/26 11:03:21;;;;;;;69.78;54.72;;;;;;;;;;5041613;28;25090;-61
2023/10/26 11:05:47;;;;;;;63.55;53.75;;;;;;;;;;5050061;28;25155;-60
2023/10/26 11:08:13;;;;;;;66.60;55.33;;;;;;;;;;5048255;28;25079;-60
2023/10/26 11:10:39;;;;;;;68.13;55.50;;;;;;;;;;5050420;28;25084;-61
2023/10/26 11:13:05;;;;;;;63.63;52.83;;;;;;;;;;5044881;28;25057;-61
2023/10/26 11:15:35;;;;;;;66.32;53.35;;;;;;;;;;5043887;28;25056;-61
2023/10/26 11:18:02;;;;;;;58.35;52.13;;;;;;;;;;5052555;28;25153;-61
2023/10/26 11:20:34;;;;;;;58.20;50.58;;;;;;;;;;5048274;28;25121;-61
2023/10/26 11:23:00;;;;;;;55.03;49.33;;;;;;;;;;5048317;28;25127;-60
2023/10/26 11:25:27;;;;;;;49.78;45.22;;;;;;;;;;5047601;28;25166;-60
2023/10/26 11:27:52;;;;;;;50.13;45.22;;;;;;;;;;5044522;28;25152;-61
2023/10/26 11:30:19;;;;;;;49.13;44.10;;;;;;;;;;5048855;28;25085;-60
2023/10/26 11:32:45;;;;;;;47.70;42.95;;;;;;;;;;5048373;28;25081;-59
2023/10/26 11:35:13;;;;;;;45.50;40.85;;;;;;;;;;5050825;28;25158;-61
2023/10/26 11:37:49;;;;;;;46.67;41.97;;;;;;;;;;5039005;28;25049;-58
2023/10/26 11:40:16;;;;;;;41.55;37.33;;;;;;;;;;5048547;28;25061;-60
2023/10/26 11:42:51;;;;;;;42.53;38.33;;;;;;;;;;5047733;28;25106;-59
2023/10/26 11:45:18;;;;;;;44.90;40.38;;;;;;;;;;5052947;28;25179;-60
2023/10/26 11:47:48;;;;;;;38.80;35.60;;;;;;;;;;5050102;28;25082;-60
2023/10/26 11:50:18;;;;;;;43.75;39.75;;;;;;;;;;5049528;28;25139;-59
2023/10/26 11:52:44;;;;;;;44.67;40.53;;;;;;;;;;5046105;28;25083;-62
2023/10/26 11:55:10;;;;;;;47.05;42.58;;;;;;;;;;5049918;28;25081;-60
2023/10/26 11:57:36;;;;;;;47.50;43.15;;;;;;;;;;5050618;28;25050;-60
2023/10/26 12:00:05;;;;;;;45.83;41.63;;;;;;;;;;5048623;28;25112;-60
2023/10/26 12:02:32;;;;;;;47.42;43.30;;;;;;;;;;5049540;28;25104;-59
2023/10/26 12:04:59;;;;;;;47.67;43.78;;;;;;;;;;5040841;28;25062;-62
2023/10/26 12:07:25;;;;;;;47.22;43.10;;;;;;;;;;5039470;28;25067;-58
2023/10/26 12:09:51;;;;;;;49.35;45.00;;;;;;;;;;5038509;28;25059;-59
2023/10/26 12:12:17;;;;;;;51.92;47.22;;;;;;;;;;5040769;28;25108;-61
2023/10/26 12:14:43;;;;;;;52.90;47.85;;;;;;;;;;5047640;28;25104;-59
2023/10/26 12:17:09;;;;;;;54.40;49.30;;;;;;;;;;5045978;28;25111;-61
2023/10/26 12:19:36;;;;;;;52.60;47.92;;;;;;;;;;5043937;28;25064;-61
2023/10/26 12:22:02;;;;;;;55.42;50.22;;;;;;;;;;5043045;28;25137;-59
2023/10/26 12:24:29;;;;;;;55.90;50.53;;;;;;;;;;5048243;28;25069;-59
2023/10/26 12:26:57;;;;;;;57.28;51.85;;;;;;;;;;5046758;28;25155;-59
2023/10/26 12:29:24;;;;;;;55.38;50.20;;;;;;;;;;5037843;28;25063;-59
2023/10/26 12:31:50;;;;;;;58.45;53.05;;;;;;;;;;5043590;28;25075;-60
2023/10/26 12:34:15;;;;;;;56.67;51.28;;;;;;;;;;5044388;28;25050;-60
2023/10/26 12:36:41;;;;;;;55.15;50.10;;;;;;;;;;5046528;28;25091;-60
2023/10/26 12:39:07;;;;;;;52.88;48.20;;;;;;;;;;5042583;28;25072;-61
2023/10/26 12:41:33;;;;;;;55.55;50.47;;;;;;;;;;5044411;28;25166;-60
2023/10/26 12:43:59;;;;;;;56.40;51.30;;;;;;;;;;5043794;28;25160;-60
2023/10/26 12:46:25;;;;;;;56.78;51.47;;;;;;;;;;5045020;28;25085;-60
2023/10/26 12:48:51;;;;;;;55.45;50.15;;;;;;;;;;5045927;28;25060;-60
2023/10/26 12:51:17;;;;;;;50.22;45.92;;;;;;;;;;5046189;28;25121;-62
2023/10/26 12:53:43;;;;;;;48.85;44.80;;;;;;;;;;5044482;28;25079;-60
2023/10/26 12:56:09;;;;;;;51.80;47.08;;;;;;;;;;5040139;28;25001;-60
2023/10/26 12:58:35;;;;;;;47.25;43.00;;;;;;;;;;5045310;28;25088;-60
2023/10/26 13:01:02;;;;;;;49.63;45.33;;;;;;;;;;5044433;28;25062;-60
2023/10/26 13:03:28;;;;;;;49.63;45.13;;;;;;;;;;5040939;28;25073;-59
2023/10/26 13:05:54;;;;;;;42.08;38.33;;;;;;;;;;5045136;28;25140;-60
2023/10/26 13:08:20;;;;;;;42.75;38.65;;;;;;;;;;5039122;28;25053;-60
2023/10/26 13:10:46;;;;;;;38.55;35.22;;;;;;;;;;5044153;28;25071;-61
2023/10/26 13:13:12;;;;;;;30.50;27.88;;;;;;;;;;5040779;28;25049;-59
2023/10/26 13:15:39;;;;;;;25.20;22.98;;;;;;;;;;5037971;28;25067;-59
2023/10/26 13:18:05;;;;;;;20.27;18.55;;;;;;;;;;5041496;28;25063;-60
2023/10/26 13:20:32;;;;;;;15.48;14.27;;;;;;;;;;5043864;28;25079;-60
2023/10/26 13:22:58;;;;;;;14.93;13.40;;;;;;;;;;5041038;28;25061;-59
2023/10/26 13:25:25;;;;;;;14.13;12.82;;;;;;;;;;5039755;28;25061;-59
2023/10/26 13:27:51;;;;;;;13.23;11.82;;;;;;;;;;5040183;28;25103;-59
2023/10/26 13:30:17;;;;;;;15.77;13.77;;;;;;;;;;5044465;28;25115;-59
2023/10/26 13:32:43;;;;;;;15.98;14.27;;;;;;;;;;5034860;28;25493;-59
2023/10/26 13:35:10;;;;;;;18.38;16.52;;;;;;;;;;5026558;28;25062;-60
2023/10/26 13:37:36;;;;;;;17.50;15.70;;;;;;;;;;5042354;28;25070;-60
2023/10/26 13:40:02;;;;;;;18.17;16.15;;;;;;;;;;5046487;28;25124;-59
2023/10/26 13:42:28;;;;;;;19.67;17.67;;;;;;;;;;5045124;28;25081;-59
2023/10/26 13:44:54;;;;;;;18.15;16.40;;;;;;;;;;5044940;28;25072;-60
2023/10/26 13:47:19;;;;;;;19.33;17.33;;;;;;;;;;5045397;28;25103;-60
2023/10/26 13:49:46;;;;;;;18.27;16.48;;;;;;;;;;5042049;28;25066;-60
2023/10/26 13:52:12;;;;;;;19.58;17.63;;;;;;;;;;5044485;28;25132;-60
2023/10/26 13:54:38;;;;;;;21.38;19.17;;;;;;;;;;5039229;28;25149;-60
2023/10/26 13:57:05;;;;;;;22.13;19.20;;;;;;;;;;5040492;28;25097;-60
2023/10/26 13:59:31;;;;;;;20.67;18.67;;;;;;;;;;5039778;28;25070;-60
2023/10/26 14:01:57;;;;;;;21.77;19.48;;;;;;;;;;5026402;28;25063;-61
2023/10/26 14:04:23;;;;;;;23.23;20.83;;;;;;;;;;5026340;28;25098;-61
2023/10/26 14:06:49;;;;;;;24.67;20.25;;;;;;;;;;5036476;28;25133;-60
2023/10/26 14:09:15;;;;;;;24.73;22.23;;;;;;;;;;5042020;28;25076;-60